createdAt,value
2022-11-29T00:00:32.281Z,100.00
2022-11-29T00:03:39.766Z,100.00
2022-11-29T00:06:47.870Z,100.00
2022-11-29T00:09:55.593Z,100.00
2022-11-29T00:13:03.211Z,100.00
2022-11-29T00:16:12.791Z,100.00
2022-11-29T00:19:19.507Z,100.00
2022-11-29T00:22:27.418Z,100.00
2022-11-29T00:25:34.480Z,100.00
2022-11-29T00:28:41.255Z,100.00
2022-11-29T00:31:48.140Z,100.00
2022-11-29T00:34:57.225Z,100.00
2022-11-29T00:38:05.992Z,100.00
2022-11-29T00:41:14.233Z,100.00
2022-11-29T00:44:21.376Z,100.00
2022-11-29T00:47:28.061Z,100.00
2022-11-29T00:50:34.830Z,100.00
2022-11-29T00:53:41.824Z,100.00
2022-11-29T00:56:48.455Z,100.00
2022-11-29T00:59:55.255Z,100.00
2022-11-29T01:03:03.264Z,100.00
2022-11-29T01:06:12.575Z,100.00
2022-11-29T01:09:20.774Z,100.00
2022-11-29T01:12:27.223Z,100.00
2022-11-29T01:15:35.004Z,100.00
2022-11-29T01:18:41.798Z,100.00
2022-11-29T01:21:48.873Z,100.00
2022-11-29T01:24:56.455Z,100.00
2022-11-29T01:28:03.479Z,100.00
2022-11-29T01:31:13.866Z,100.00
2022-11-29T01:34:20.825Z,100.00
2022-11-29T01:37:29.830Z,100.00
2022-11-29T01:40:36.276Z,100.00
2022-11-29T01:44:09.462Z,100.00
2022-11-29T01:47:18.297Z,100.00
2022-11-29T01:50:26.775Z,100.00
2022-11-29T01:53:34.233Z,100.00
2022-11-29T01:56:42.410Z,100.00
2022-11-29T01:59:56.518Z,100.00
2022-11-29T02:03:15.884Z,100.00
2022-11-29T02:06:23.836Z,100.00
2022-11-29T02:09:31.335Z,100.00
2022-11-29T02:13:09.799Z,100.00
2022-11-29T02:16:26.033Z,100.00
2022-11-29T02:20:06.872Z,100.00
2022-11-29T02:23:50.416Z,100.00
2022-11-29T02:27:44.094Z,100.00
2022-11-29T02:31:10.404Z,100.00
2022-11-29T02:34:46.188Z,100.00
2022-11-29T02:38:15.090Z,100.00
2022-11-29T02:41:27.718Z,100.00
2022-11-29T02:45:13.481Z,100.00
2022-11-29T02:48:48.263Z,100.00
2022-11-29T02:52:06.141Z,100.00
2022-11-29T02:55:36.079Z,100.00
2022-11-29T02:59:13.737Z,100.00
2022-11-29T03:02:28.613Z,100.00
2022-11-29T03:05:54.060Z,100.00
2022-11-29T03:09:34.943Z,100.00
2022-11-29T03:12:50.177Z,100.00
2022-11-29T03:16:09.857Z,100.00
2022-11-29T03:19:51.161Z,100.00
2022-11-29T03:23:17.112Z,100.00
2022-11-29T03:26:41.280Z,100.00
2022-11-29T03:30:01.283Z,100.00
2022-11-29T03:33:49.775Z,100.00
2022-11-29T03:37:00.215Z,100.00
2022-11-29T03:40:20.310Z,100.00
2022-11-29T03:43:50.863Z,100.00
2022-11-29T03:47:09.205Z,100.00
2022-11-29T03:50:22.450Z,100.00
2022-11-29T03:53:38.161Z,100.00
2022-11-29T03:56:44.888Z,100.00
2022-11-29T04:00:02.939Z,100.00
2022-11-29T04:03:52.220Z,100.00
2022-11-29T04:07:06.737Z,100.00
2022-11-29T04:10:42.354Z,100.00
2022-11-29T04:14:10.016Z,100.00
2022-11-29T04:17:28.515Z,100.00
2022-11-29T04:20:56.684Z,100.00
2022-11-29T04:24:12.572Z,100.00
2022-11-29T04:27:38.211Z,100.00
2022-11-29T04:31:15.729Z,100.00
2022-11-29T04:34:48.431Z,100.00
2022-11-29T04:38:07.548Z,100.00
2022-11-29T04:41:44.450Z,100.00
2022-11-29T04:44:56.474Z,100.00
2022-11-29T04:48:12.297Z,100.00
2022-11-29T04:51:51.865Z,100.00
2022-11-29T04:55:49.774Z,100.00
2022-11-29T04:59:22.490Z,100.00
2022-11-29T05:02:49.156Z,100.00
2022-11-29T05:06:18.384Z,100.00
2022-11-29T05:10:01.152Z,100.00
2022-11-29T05:13:31.594Z,100.00
2022-11-29T05:17:01.783Z,100.00
2022-11-29T05:20:30.308Z,100.00
2022-11-29T05:24:11.603Z,100.00
2022-11-29T05:27:35.845Z,100.00
2022-11-29T05:31:04.102Z,100.00
2022-11-29T05:34:34.543Z,100.00
2022-11-29T05:38:26.386Z,100.00
2022-11-29T05:42:12.945Z,100.00
2022-11-29T05:45:39.412Z,100.00
2022-11-29T05:48:58.135Z,100.00
2022-11-29T05:52:22.449Z,100.00
2022-11-29T05:55:45.412Z,100.00
2022-11-29T05:59:03.326Z,100.00
2022-11-29T06:02:27.496Z,100.00
2022-11-29T06:06:08.701Z,100.00
2022-11-29T06:09:20.943Z,100.00
2022-11-29T06:12:31.415Z,100.00
2022-11-29T06:16:20.073Z,100.00
2022-11-29T06:19:57.477Z,100.00
2022-11-29T06:23:11.087Z,100.00
2022-11-29T06:26:51.090Z,100.00
2022-11-29T06:30:17.794Z,100.00
2022-11-29T06:33:32.245Z,100.00
2022-11-29T06:37:03.140Z,100.00
2022-11-29T06:41:02.413Z,100.00
2022-11-29T06:44:11.914Z,100.00
2022-11-29T06:47:51.015Z,100.00
2022-11-29T06:51:11.455Z,100.00
2022-11-29T06:54:33.168Z,100.00
2022-11-29T06:58:03.511Z,100.00
2022-11-29T07:01:27.653Z,100.00
2022-11-29T07:04:45.392Z,100.00
2022-11-29T07:07:55.853Z,100.00
2022-11-29T07:11:01.881Z,100.00
2022-11-29T07:14:07.426Z,100.00
2022-11-29T07:17:37.359Z,100.00
2022-11-29T07:21:03.305Z,100.00
2022-11-29T07:24:14.765Z,100.00
2022-11-29T07:27:29.115Z,100.00
2022-11-29T07:30:46.604Z,100.00
2022-11-29T07:34:31.534Z,100.00
2022-11-29T07:37:58.020Z,100.00
2022-11-29T07:41:47.062Z,100.00
2022-11-29T07:45:28.186Z,100.00
2022-11-29T07:48:33.692Z,100.00
2022-11-29T07:51:38.930Z,100.00
2022-11-29T07:54:44.846Z,100.00
2022-11-29T07:57:51.509Z,100.00
2022-11-29T08:00:58.188Z,100.00
2022-11-29T08:04:05.039Z,100.00
2022-11-29T08:07:11.592Z,100.00
2022-11-29T08:10:17.328Z,100.00
2022-11-29T08:13:23.609Z,100.00
2022-11-29T08:16:30.585Z,100.00
2022-11-29T08:19:36.130Z,100.00
2022-11-29T08:22:42.151Z,100.00
2022-11-29T08:25:49.015Z,100.00
2022-11-29T08:28:54.274Z,100.00
2022-11-29T08:31:59.508Z,100.00
2022-11-29T08:35:06.733Z,100.00
2022-11-29T08:38:12.488Z,100.00
2022-11-29T08:41:18.904Z,100.00
2022-11-29T08:44:25.469Z,100.00
2022-11-29T08:47:36.732Z,100.00
2022-11-29T08:50:42.394Z,100.00
2022-11-29T08:53:51.843Z,100.00
2022-11-29T08:57:37.842Z,100.00
2022-11-29T09:00:24.276Z,100.00
2022-11-29T09:03:48.289Z,100.00
2022-11-29T09:06:53.758Z,100.00
2022-11-29T09:09:59.585Z,100.00
2022-11-29T09:13:04.782Z,100.00
2022-11-29T09:16:13.417Z,100.00
2022-11-29T09:19:19.496Z,100.00
2022-11-29T09:22:25.130Z,100.00
2022-11-29T09:25:31.752Z,100.00
2022-11-29T09:28:38.458Z,100.00
2022-11-29T09:31:47.102Z,100.00
2022-11-29T09:34:53.022Z,100.00
2022-11-29T09:37:58.827Z,100.00
2022-11-29T09:41:28.845Z,100.00
2022-11-29T09:44:40.126Z,100.00
2022-11-29T09:48:23.185Z,100.00
2022-11-29T09:51:38.637Z,100.00
2022-11-29T09:54:54.449Z,100.00
2022-11-29T09:58:04.200Z,100.00
2022-11-29T10:01:33.699Z,100.00
2022-11-29T10:04:44.614Z,100.00
2022-11-29T10:08:09.095Z,100.00
2022-11-29T10:11:40.125Z,100.00
2022-11-29T10:15:03.855Z,100.00
2022-11-29T10:18:29.534Z,100.00
2022-11-29T10:21:39.003Z,100.00
2022-11-29T10:24:52.761Z,100.00
2022-11-29T10:27:58.453Z,100.00
2022-11-29T10:31:43.152Z,100.00
2022-11-29T10:34:50.699Z,100.00
2022-11-29T10:41:27.748Z,100.00
2022-11-29T10:44:34.656Z,100.00
2022-11-29T10:47:40.254Z,100.00
2022-11-29T10:50:49.635Z,100.00
2022-11-29T10:53:57.130Z,100.00
2022-11-29T10:57:04.562Z,100.00
2022-11-29T11:00:12.212Z,100.00
2022-11-29T11:03:59.351Z,100.00
2022-11-29T11:07:07.370Z,100.00
2022-11-29T11:10:31.327Z,100.00
2022-11-29T11:13:39.643Z,100.00
2022-11-29T11:16:45.570Z,100.00
2022-11-29T11:20:06.510Z,100.00
2022-11-29T11:23:31.561Z,100.00
2022-11-29T11:26:45.489Z,100.00
2022-11-29T11:29:52.985Z,100.00
2022-11-29T11:33:25.720Z,100.00
2022-11-29T11:36:32.479Z,100.00
2022-11-29T11:39:39.713Z,100.00
2022-11-29T11:42:48.092Z,100.00
2022-11-29T11:45:55.843Z,99.22
2022-11-29T11:49:01.733Z,98.10
2022-11-29T11:52:23.099Z,99.07
2022-11-29T11:55:47.792Z,99.50
2022-11-29T11:58:57.846Z,98.22
2022-11-29T12:02:27.076Z,98.59
2022-11-29T12:05:35.792Z,98.71
2022-11-29T12:08:45.948Z,98.27
2022-11-29T12:12:16.463Z,99.40
2022-11-29T12:15:41.147Z,99.59
2022-11-29T12:18:52.575Z,99.27
2022-11-29T12:22:05.188Z,98.79
2022-11-29T12:25:19.773Z,98.54
2022-11-29T12:28:40.006Z,99.45
2022-11-29T12:31:55.667Z,99.32
2022-11-29T12:35:19.610Z,99.17
2022-11-29T12:39:04.457Z,100.00
2022-11-29T12:42:26.533Z,99.51
2022-11-29T12:45:48.082Z,99.35
2022-11-29T12:49:17.188Z,99.47
2022-11-29T12:52:51.946Z,98.62
2022-11-29T12:56:28.379Z,99.85
2022-11-29T13:00:07.517Z,99.32
2022-11-29T13:03:28.317Z,98.36
2022-11-29T13:06:56.242Z,100.00
2022-11-29T13:10:25.123Z,100.00
2022-11-29T13:14:41.030Z,100.00
2022-11-29T13:17:54.290Z,100.00
2022-11-29T13:21:11.999Z,99.46
2022-11-29T13:24:25.895Z,99.64
2022-11-29T13:27:42.653Z,98.93
2022-11-29T13:30:49.226Z,100.00
2022-11-29T13:34:25.312Z,99.74
2022-11-29T13:37:49.405Z,99.69
2022-11-29T13:41:44.052Z,98.96
2022-11-29T13:44:58.794Z,100.00
2022-11-29T13:48:29.099Z,99.17
2022-11-29T13:51:37.923Z,99.83
2022-11-29T13:55:06.319Z,99.20
2022-11-29T13:58:34.457Z,99.94
2022-11-29T14:01:59.842Z,100.00
2022-11-29T14:05:08.219Z,99.76
2022-11-29T14:08:54.600Z,99.16
2022-11-29T14:12:07.071Z,100.00
2022-11-29T14:15:32.552Z,100.00
2022-11-29T14:18:38.530Z,99.58
2022-11-29T14:22:03.271Z,100.00
2022-11-29T14:25:50.675Z,100.00
2022-11-29T14:28:53.156Z,100.00
2022-11-29T14:32:00.208Z,100.00
2022-11-29T14:35:38.414Z,100.00
2022-11-29T14:39:07.847Z,100.00
2022-11-29T14:42:31.766Z,100.00
2022-11-29T14:45:37.534Z,100.00
2022-11-29T14:49:01.536Z,100.00
2022-11-29T14:52:15.063Z,100.00
2022-11-29T14:55:30.065Z,100.00
2022-11-29T14:58:35.996Z,100.00
2022-11-29T15:01:46.142Z,100.00
2022-11-29T15:04:55.185Z,100.00
2022-11-29T15:08:35.286Z,100.00
2022-11-29T15:11:56.995Z,100.00
2022-11-29T15:15:30.141Z,100.00
2022-11-29T15:19:13.568Z,100.00
2022-11-29T15:22:22.655Z,100.00
2022-11-29T15:25:32.220Z,100.00
2022-11-29T15:28:38.231Z,100.00
2022-11-29T15:31:45.067Z,100.00
2022-11-29T15:34:53.921Z,100.00
2022-11-29T15:38:00.274Z,100.00
2022-11-29T15:41:06.302Z,100.00
2022-11-29T15:44:22.426Z,100.00
2022-11-29T15:47:28.710Z,100.00
2022-11-29T15:50:35.441Z,100.00
2022-11-29T15:54:19.625Z,100.00
2022-11-29T15:57:31.009Z,100.00
2022-11-29T16:00:37.244Z,100.00
2022-11-29T16:03:46.094Z,100.00
2022-11-29T16:06:52.420Z,100.00
2022-11-29T16:10:15.347Z,100.00
2022-11-29T16:13:26.591Z,100.00
2022-11-29T16:16:35.920Z,100.00
2022-11-29T16:19:43.555Z,100.00
2022-11-29T16:23:13.335Z,100.00
2022-11-29T16:26:41.796Z,100.00
2022-11-29T16:29:49.056Z,100.00
2022-11-29T16:33:03.983Z,100.00
2022-11-29T16:36:18.169Z,100.00
2022-11-29T16:39:25.970Z,100.00
2022-11-29T16:42:34.899Z,100.00
2022-11-29T16:45:41.907Z,100.00
2022-11-29T16:48:49.570Z,100.00
2022-11-29T16:51:55.962Z,100.00
2022-11-29T16:55:02.522Z,100.00
2022-11-29T16:58:11.911Z,100.00
2022-11-29T17:01:25.058Z,100.00
2022-11-29T17:04:31.495Z,100.00
2022-11-29T17:07:40.063Z,100.00
2022-11-29T17:10:46.207Z,100.00
2022-11-29T17:13:52.984Z,100.00
2022-11-29T17:17:03.342Z,100.00
2022-11-29T17:20:10.920Z,100.00
2022-11-29T17:23:17.971Z,100.00
2022-11-29T17:26:25.136Z,100.00
2022-11-29T17:29:31.445Z,100.00
2022-11-29T17:32:39.256Z,100.00
2022-11-29T17:35:46.357Z,100.00
2022-11-29T17:38:53.586Z,100.00
2022-11-29T17:42:00.991Z,100.00
2022-11-29T17:45:08.284Z,100.00
2022-11-29T17:48:16.124Z,100.00
2022-11-29T17:54:54.022Z,100.00
2022-11-29T17:58:00.875Z,100.00
2022-11-29T18:01:10.928Z,100.00
2022-11-29T18:04:18.637Z,100.00
2022-11-29T18:07:26.085Z,100.00
2022-11-29T18:10:34.816Z,100.00
2022-11-29T18:13:42.640Z,100.00
2022-11-29T18:16:51.612Z,100.00
2022-11-29T18:19:59.882Z,100.00
2022-11-29T18:23:08.196Z,100.00
2022-11-29T18:26:20.387Z,100.00
2022-11-29T18:29:30.458Z,100.00
2022-11-29T18:32:44.799Z,100.00
2022-11-29T18:35:53.183Z,100.00
2022-11-29T18:39:03.204Z,100.00
2022-11-29T18:42:11.173Z,100.00
2022-11-29T18:45:18.417Z,100.00
2022-11-29T18:48:25.395Z,100.00
2022-11-29T18:51:33.973Z,100.00
2022-11-29T18:54:42.303Z,100.00
2022-11-29T18:57:53.745Z,100.00
2022-11-29T19:01:07.188Z,100.00
2022-11-29T19:04:21.093Z,100.00
2022-11-29T19:07:30.207Z,100.00
2022-11-29T19:10:39.783Z,100.00
2022-11-29T19:13:49.296Z,100.00
2022-11-29T19:16:57.272Z,100.00
2022-11-29T19:20:06.013Z,100.00
2022-11-29T19:23:14.197Z,100.00
2022-11-29T19:26:23.687Z,100.00
2022-11-29T19:29:36.715Z,100.00
2022-11-29T19:32:47.893Z,100.00
2022-11-29T19:35:56.940Z,100.00
2022-11-29T19:39:06.586Z,100.00
2022-11-29T19:42:14.725Z,100.00
2022-11-29T19:45:22.575Z,100.00
2022-11-29T19:48:31.078Z,100.00
2022-11-29T19:51:40.398Z,100.00
2022-11-29T19:54:48.950Z,100.00
2022-11-29T19:57:58.351Z,100.00
2022-11-29T20:01:10.420Z,100.00
2022-11-29T20:04:20.460Z,100.00
2022-11-29T20:07:29.733Z,100.00
2022-11-29T20:10:38.270Z,100.00
2022-11-29T20:13:48.787Z,100.00
2022-11-29T20:16:56.870Z,100.00
2022-11-29T20:20:06.663Z,100.00
2022-11-29T20:23:16.142Z,100.00
2022-11-29T20:26:25.648Z,100.00
2022-11-29T20:29:34.748Z,100.00
2022-11-29T20:32:43.988Z,100.00
2022-11-29T20:36:08.076Z,100.00
2022-11-29T20:39:39.978Z,100.00
2022-11-29T20:42:54.731Z,100.00
2022-11-29T20:46:03.343Z,100.00
2022-11-29T20:49:16.139Z,100.00
2022-11-29T20:52:58.516Z,100.00
2022-11-29T20:56:08.388Z,100.00
2022-11-29T20:59:18.565Z,100.00
2022-11-29T21:02:27.121Z,100.00
2022-11-29T21:05:35.308Z,100.00
2022-11-29T21:08:44.257Z,100.00
2022-11-29T21:11:52.198Z,100.00
2022-11-29T21:15:01.202Z,100.00
2022-11-29T21:18:17.943Z,100.00
2022-11-29T21:21:36.987Z,100.00
2022-11-29T21:25:10.069Z,100.00
2022-11-29T21:28:18.780Z,100.00
2022-11-29T21:31:28.917Z,100.00
2022-11-29T21:34:37.947Z,100.00
2022-11-29T21:37:48.329Z,100.00
2022-11-29T21:40:56.967Z,100.00
2022-11-29T21:44:07.412Z,100.00
2022-11-29T21:47:17.175Z,100.00
2022-11-29T21:50:27.205Z,100.00
2022-11-29T21:53:38.600Z,100.00
2022-11-29T21:56:47.478Z,100.00
2022-11-29T21:59:56.697Z,100.00
2022-11-29T22:03:05.469Z,100.00
2022-11-29T22:06:21.643Z,100.00
2022-11-29T22:09:32.208Z,100.00
2022-11-29T22:12:49.341Z,100.00
2022-11-29T22:16:11.770Z,100.00
2022-11-29T22:19:25.660Z,100.00
2022-11-29T22:22:35.913Z,100.00
2022-11-29T22:25:45.041Z,100.00
2022-11-29T22:28:54.082Z,100.00
2022-11-29T22:32:03.309Z,100.00
2022-11-29T22:35:13.375Z,100.00
2022-11-29T22:38:22.663Z,100.00
2022-11-29T22:41:32.003Z,100.00
2022-11-29T22:44:40.418Z,100.00
2022-11-29T22:47:49.891Z,100.00
2022-11-29T22:51:08.011Z,100.00
2022-11-29T22:54:18.886Z,100.00
2022-11-29T22:57:27.882Z,100.00
2022-11-29T23:00:38.931Z,100.00
2022-11-29T23:03:52.781Z,100.00
2022-11-29T23:07:01.125Z,100.00
2022-11-29T23:10:09.700Z,100.00
2022-11-29T23:13:16.970Z,100.00
2022-11-29T23:16:29.131Z,100.00
2022-11-29T23:19:37.532Z,100.00
2022-11-29T23:22:46.672Z,100.00
2022-11-29T23:25:56.131Z,100.00
2022-11-29T23:29:05.078Z,100.00
2022-11-29T23:32:13.735Z,100.00
2022-11-29T23:35:22.243Z,100.00
2022-11-29T23:38:29.741Z,100.00
2022-11-29T23:41:37.868Z,100.00
2022-11-29T23:44:45.767Z,100.00
2022-11-29T23:47:53.714Z,100.00
2022-11-29T23:51:01.068Z,100.00
2022-11-29T23:54:08.643Z,100.00
2022-11-29T23:57:17.110Z,100.00
